West Hamlin, West Virginia
Current Conditions -  °F | °C
As of 11:51 PM on Tuesday 25 Nov 2014 (Local Time) from KHTS Reporting Station
Clear Clear  
Wind Chill: 33°   Ceiling: Unl
Heat Index: 37°   Visibility: 10mi
Dew Point: 29°   Wind: 5mph
Humidity: 73%   Direction: 30°NNE
Pressure: 30.16"   Gusts: NA
Location:  38.29°N, 82.2°W
Report Text: KHTS 260451Z 03004KT 10SM CLR 03/M02 A3016 RMK AO2 SLP216 T00281017 401170022
Loading
Personal Weather Stations






























Interactive Weather Map New forecast layout! Learn more

10-Day Weather Forecast

Advertisements
Track Severe Weather on mobile